Time;durP1;ratioP1;P1;durP2;ratioP2;P2;SDS_P1;SDS_P2;PMS_P1;PMS_P2;Temp;Humidity;BMP_temperature;BMP_pressure;BME280_temperature;BME280_humidity;BME280_pressure;Samples;Min_cycle;Max_cycle;Signal;HPM_P1;HPM_P2
2021/12/11 00:00:22;;;;;;;3.00;2.05;;;;;;;-144.99;100.00;57660.31;343278;28;1516;-67
2021/12/11 00:00:41;;;;;;;3.83;1.80;;;;;;;-144.99;100.00;57660.31;344517;28;1640;-68
2021/12/11 00:00:55;;;;;;;3.58;1.67;;;;;;;-144.99;100.00;57660.31;344652;28;1059;-69
2021/12/11 00:01:18;;;;;;;3.88;1.90;;;;;;;-144.99;100.00;57660.31;344787;28;1067;-68
2021/12/11 00:01:44;;;;;;;3.83;1.83;;;;;;;-144.99;100.00;57660.31;344818;28;1099;-68
2021/12/11 00:02:02;;;;;;;6.10;1.92;;;;;;;-144.99;100.00;57660.31;343702;28;1830;-68
2021/12/11 00:02:23;;;;;;;6.70;1.98;;;;;;;-144.99;100.00;57660.31;343555;28;1098;-68
2021/12/11 00:02:35;;;;;;;3.83;1.85;;;;;;;-144.99;100.00;57660.31;343941;28;1513;-68
2021/12/11 00:02:59;;;;;;;4.05;1.90;;;;;;;-144.99;100.00;57660.31;344680;28;1103;-67
2021/12/11 00:03:19;;;;;;;4.00;1.77;;;;;;;-144.99;100.00;57660.31;343690;28;1102;-68
2021/12/11 00:03:36;;;;;;;2.47;1.70;;;;;;;-144.99;100.00;57660.31;343398;28;1907;-68
2021/12/11 00:03:56;;;;;;;3.10;1.80;;;;;;;-144.99;100.00;57660.31;343294;28;1698;-68
2021/12/11 00:04:13;;;;;;;3.45;1.80;;;;;;;-144.99;100.00;57660.31;343096;28;1845;-68
2021/12/11 00:04:32;;;;;;;3.70;1.90;;;;;;;-144.99;100.00;57660.31;344524;28;2186;-68
2021/12/11 00:04:47;;;;;;;3.90;1.95;;;;;;;-144.99;100.00;57660.31;343642;28;1090;-68
2021/12/11 00:05:01;;;;;;;5.00;1.98;;;;;;;-144.99;100.00;57660.31;343515;28;1537;-67
2021/12/11 00:05:16;;;;;;;5.40;1.88;;;;;;;-144.99;100.00;57660.31;344700;28;1171;-68
2021/12/11 00:05:29;;;;;;;4.00;1.98;;;;;;;-144.99;100.00;57660.31;344787;28;1240;-69
2021/12/11 00:05:51;;;;;;;3.50;2.08;;;;;;;-144.99;100.00;57660.31;344652;28;1340;-68
2021/12/11 00:06:12;;;;;;;4.38;1.90;;;;;;;-144.99;100.00;57660.31;344319;28;1556;-69
2021/12/11 00:06:28;;;;;;;4.70;1.95;;;;;;;-144.99;100.00;57660.31;343376;28;1329;-68
2021/12/11 00:06:47;;;;;;;5.85;2.15;;;;;;;-144.99;100.00;57660.31;343283;28;1063;-68
2021/12/11 00:07:02;;;;;;;6.03;2.10;;;;;;;-144.99;100.00;57660.31;343637;28;1305;-68
2021/12/11 00:07:17;;;;;;;4.30;2.08;;;;;;;-144.99;100.00;57660.31;344102;28;1600;-68
2021/12/11 00:07:30;;;;;;;4.07;2.00;;;;;;;-144.99;100.00;57660.31;344826;28;1912;-67
2021/12/11 00:07:42;;;;;;;3.40;1.80;;;;;;;-144.99;100.00;57660.31;343521;28;1220;-68
2021/12/11 00:07:56;;;;;;;4.05;1.77;;;;;;;-144.99;100.00;57660.31;343617;28;1062;-67
2021/12/11 00:08:10;;;;;;;3.83;1.83;;;;;;;-144.99;100.00;57660.31;343534;28;1098;-68
2021/12/11 00:08:27;;;;;;;2.60;1.90;;;;;;;-144.99;100.00;57660.31;343696;28;1004;-68
2021/12/11 00:08:40;;;;;;;3.38;2.00;;;;;;;-144.99;100.00;57660.31;343671;28;1605;-68
2021/12/11 00:08:56;;;;;;;4.70;2.03;;;;;;;-144.99;100.00;57660.31;343519;28;1107;-69
2021/12/11 00:09:19;;;;;;;4.25;2.00;;;;;;;-144.99;100.00;57660.31;343329;28;1938;-68
2021/12/11 00:09:37;;;;;;;3.50;2.15;;;;;;;-144.99;100.00;57660.31;343723;28;2232;-68
2021/12/11 00:09:54;;;;;;;3.75;2.38;;;;;;;-144.99;100.00;57660.31;344547;28;2227;-68
2021/12/11 00:10:29;;;;;;;3.58;2.40;;;;;;;-144.99;100.00;57660.31;346174;28;1114;-68
2021/12/11 00:10:45;;;;;;;4.65;1.90;;;;;;;-144.99;100.00;57660.31;343766;28;1626;-67
2021/12/11 00:11:14;;;;;;;4.00;1.70;;;;;;;-144.99;100.00;57660.31;343604;28;1358;-68
2021/12/11 00:11:36;;;;;;;3.88;1.77;;;;;;;-144.99;100.00;57660.31;344764;28;1194;-68
2021/12/11 00:11:53;;;;;;;4.43;2.03;;;;;;;-144.99;100.00;57660.31;344303;28;1698;-68
2021/12/11 00:12:14;;;;;;;3.72;2.00;;;;;;;-144.99;100.00;57660.31;344654;28;1294;-68
2021/12/11 00:12:31;;;;;;;4.32;1.75;;;;;;;-144.99;100.00;57660.31;344931;28;1127;-68
2021/12/11 00:12:53;;;;;;;4.43;1.70;;;;;;;-144.99;100.00;57660.31;344739;28;1151;-68
2021/12/11 00:13:09;;;;;;;3.20;1.80;;;;;;;-144.99;100.00;57660.31;344565;28;1328;-68
2021/12/11 00:13:26;;;;;;;3.60;1.88;;;;;;;-144.99;100.00;57660.31;344734;28;1186;-68
2021/12/11 00:13:41;;;;;;;3.75;1.80;;;;;;;-144.99;100.00;57660.31;344825;28;1077;-68
2021/12/11 00:13:57;;;;;;;3.35;1.88;;;;;;;-144.99;100.00;57660.31;345021;28;1039;-68
2021/12/11 00:14:11;;;;;;;2.67;1.77;;;;;;;-144.99;100.00;57660.31;343685;28;1062;-68
2021/12/11 00:14:27;;;;;;;3.88;1.80;;;;;;;-144.99;100.00;57660.31;343421;28;1054;-68
2021/12/11 00:14:42;;;;;;;3.65;1.70;;;;;;;-144.99;100.00;57660.31;343597;28;1055;-68
2021/12/11 00:15:01;;;;;;;2.63;1.55;;;;;;;-144.99;100.00;57660.31;343511;28;1260;-68
2021/12/11 00:15:22;;;;;;;3.38;1.73;;;;;;;-144.99;100.00;57660.31;344860;28;1264;-68
2021/12/11 00:15:39;;;;;;;4.60;2.10;;;;;;;-144.99;100.00;57660.31;343840;28;1962;-68
2021/12/11 00:15:52;;;;;;;4.72;1.90;;;;;;;-144.99;100.00;57660.31;344949;28;1513;-69
2021/12/11 00:16:06;;;;;;;4.65;1.90;;;;;;;-144.99;100.00;57660.31;344884;28;1243;-68
2021/12/11 00:16:21;;;;;;;3.60;2.00;;;;;;;-144.99;100.00;57660.31;345032;28;1038;-68
2021/12/11 00:16:36;;;;;;;2.90;1.98;;;;;;;-144.99;100.00;57660.31;345119;28;1055;-68
2021/12/11 00:16:49;;;;;;;3.53;1.90;;;;;;;-144.99;100.00;57660.31;345120;28;1327;-67
2021/12/11 00:17:03;;;;;;;3.15;1.75;;;;;;;-144.99;100.00;57660.31;344586;28;1543;-68
2021/12/11 00:17:31;;;;;;;2.53;1.77;;;;;;;-144.99;100.00;57660.31;344181;28;1883;-68
2021/12/11 00:17:45;;;;;;;4.15;1.73;;;;;;;-144.99;100.00;57660.31;344557;28;1892;-68
2021/12/11 00:18:00;;;;;;;4.22;1.90;;;;;;;-144.99;100.00;57660.31;344999;28;1887;-67
2021/12/11 00:18:19;;;;;;;4.35;2.00;;;;;;;-144.99;100.00;57660.31;343837;28;1264;-68
2021/12/11 00:18:32;;;;;;;4.25;2.00;;;;;;;-144.99;100.00;57660.31;343515;28;1366;-67
2021/12/11 00:18:51;;;;;;;3.38;1.80;;;;;;;-144.99;100.00;57660.31;343684;28;1095;-68
2021/12/11 00:19:25;;;;;;;2.83;1.60;;;;;;;-144.99;100.00;57660.31;344594;28;1588;-69
2021/12/11 00:19:39;;;;;;;3.15;1.73;;;;;;;-144.99;100.00;57660.31;344261;28;1255;-68
2021/12/11 00:19:51;;;;;;;4.25;2.00;;;;;;;-144.99;100.00;57660.31;343521;28;2029;-68
2021/12/11 00:20:08;;;;;;;4.22;2.00;;;;;;;-144.99;100.00;57660.31;343689;28;1409;-68
2021/12/11 00:20:24;;;;;;;2.65;1.70;;;;;;;-144.99;100.00;57660.31;343559;28;956;-68
2021/12/11 00:20:42;;;;;;;3.10;1.65;;;;;;;-144.99;100.00;57660.31;343022;28;1617;-68
2021/12/11 00:21:08;;;;;;;4.13;1.80;;;;;;;-144.99;100.00;57660.31;343266;28;1615;-68
2021/12/11 00:21:23;;;;;;;3.25;1.70;;;;;;;-144.99;100.00;57660.31;342623;28;1065;-68
2021/12/11 00:21:36;;;;;;;3.47;1.73;;;;;;;-144.99;100.00;57660.31;342210;28;1292;-68
2021/12/11 00:21:49;;;;;;;3.22;1.60;;;;;;;-144.99;100.00;57660.31;342377;28;1311;-68
2021/12/11 00:22:09;;;;;;;2.80;1.40;;;;;;;-144.99;100.00;57660.31;342864;28;1657;-67
2021/12/11 00:22:24;;;;;;;3.50;1.50;;;;;;;-144.99;100.00;57660.31;344226;28;1580;-68
2021/12/11 00:22:41;;;;;;;3.60;1.48;;;;;;;-144.99;100.00;57660.31;343721;28;1059;-68
2021/12/11 00:22:54;;;;;;;2.90;1.58;;;;;;;-144.99;100.00;57660.31;343732;28;1364;-69
2021/12/11 00:23:07;;;;;;;3.30;1.58;;;;;;;-144.99;100.00;57660.31;343819;28;1130;-68
2021/12/11 00:23:30;;;;;;;4.07;1.63;;;;;;;-144.99;100.00;57660.31;343764;28;1082;-68
2021/12/11 00:23:56;;;;;;;3.33;1.70;;;;;;;-144.99;100.00;57660.31;343633;28;1043;-68
2021/12/11 00:24:08;;;;;;;3.53;1.75;;;;;;;-144.99;100.00;57660.31;343748;28;1218;-68
2021/12/11 00:24:26;;;;;;;2.90;1.80;;;;;;;-144.99;100.00;57660.31;343506;28;1252;-68
2021/12/11 00:24:39;;;;;;;2.30;1.67;;;;;;;-144.99;100.00;57660.31;345004;28;1299;-68
2021/12/11 00:24:51;;;;;;;3.60;1.77;;;;;;;-144.99;100.00;57660.31;345088;28;1115;-68
2021/12/11 00:25:09;;;;;;;3.83;1.70;;;;;;;-144.99;100.00;57660.31;344939;28;1297;-68
2021/12/11 00:25:21;;;;;;;3.25;1.55;;;;;;;-144.99;100.00;57660.31;345140;28;1027;-68
2021/12/11 00:25:41;;;;;;;3.42;1.50;;;;;;;-144.99;100.00;57660.31;344709;28;1019;-68
2021/12/11 00:25:53;;;;;;;3.92;1.60;;;;;;;-144.99;100.00;57660.31;344922;28;1201;-68
2021/12/11 00:26:09;;;;;;;3.42;1.58;;;;;;;-144.99;100.00;57660.31;343894;28;1564;-68
2021/12/11 00:26:25;;;;;;;1.80;1.40;;;;;;;-144.99;100.00;57660.31;343975;28;1089;-68
2021/12/11 00:26:45;;;;;;;3.42;1.60;;;;;;;-144.99;100.00;57660.31;343722;28;1007;-67
2021/12/11 00:27:03;;;;;;;4.10;1.75;;;;;;;-144.99;100.00;57660.31;343661;28;1288;-68
2021/12/11 00:27:26;;;;;;;3.45;1.65;;;;;;;-144.99;100.00;57660.31;344585;28;1717;-68
2021/12/11 00:27:41;;;;;;;2.90;1.40;;;;;;;-144.99;100.00;57660.31;344302;28;1552;-68
2021/12/11 00:28:02;;;;;;;2.47;1.48;;;;;;;-144.99;100.00;57660.31;344467;28;1622;-68
2021/12/11 00:28:15;;;;;;;2.67;1.63;;;;;;;-144.99;100.00;57660.31;345005;28;1334;-68
2021/12/11 00:28:27;;;;;;;3.05;1.70;;;;;;;-144.99;100.00;57660.31;344972;28;1023;-69
2021/12/11 00:28:45;;;;;;;2.40;1.58;;;;;;;-144.99;100.00;57660.31;345096;28;1070;-68
2021/12/11 00:28:57;;;;;;;2.92;1.70;;;;;;;-144.99;100.00;57660.31;344928;28;1633;-69
2021/12/11 00:29:12;;;;;;;3.13;1.77;;;;;;;-144.99;100.00;57660.31;345075;28;1312;-68
2021/12/11 00:29:25;;;;;;;3.13;1.63;;;;;;;-144.99;100.00;57660.31;343924;28;1757;-68
2021/12/11 00:29:38;;;;;;;3.15;1.55;;;;;;;-144.99;100.00;57660.31;343788;28;1074;-68
2021/12/11 00:29:52;;;;;;;3.13;1.42;;;;;;;-144.99;100.00;57660.31;343948;28;1998;-68
2021/12/11 00:30:06;;;;;;;3.13;1.55;;;;;;;-144.99;100.00;57660.31;344700;28;1285;-68
2021/12/11 00:30:26;;;;;;;2.63;1.60;;;;;;;-144.99;100.00;57660.31;344635;28;2965;-68
2021/12/11 00:30:42;;;;;;;4.38;1.55;;;;;;;-144.99;100.00;57660.31;343966;28;1314;-68
2021/12/11 00:30:54;;;;;;;3.80;1.50;;;;;;;-144.99;100.00;57660.31;343634;28;1185;-68
2021/12/11 00:31:06;;;;;;;2.30;1.48;;;;;;;-144.99;100.00;57660.31;346321;28;1314;-67
2021/12/11 00:31:20;;;;;;;3.72;1.58;;;;;;;-144.99;100.00;57660.31;344626;28;1834;-68
2021/12/11 00:31:34;;;;;;;3.83;1.70;;;;;;;-144.99;100.00;57660.31;344159;28;2101;-68
2021/12/11 00:31:50;;;;;;;2.67;1.70;;;;;;;-144.99;100.00;57660.31;344337;28;1907;-67
2021/12/11 00:32:07;;;;;;;2.95;1.60;;;;;;;-144.99;100.00;57660.31;344736;28;1917;-68
2021/12/11 00:32:24;;;;;;;2.97;1.60;;;;;;;-144.99;100.00;57660.31;344938;28;1217;-68
2021/12/11 00:32:37;;;;;;;2.50;1.70;;;;;;;-144.99;100.00;57660.31;344952;28;1292;-68
2021/12/11 00:32:57;;;;;;;2.82;1.82;;;;;;;-144.99;100.00;57660.31;345037;28;1031;-68
2021/12/11 00:33:20;;;;;;;2.53;1.73;;;;;;;-144.99;100.00;57660.31;343812;28;1035;-68
2021/12/11 00:33:33;;;;;;;1.90;1.60;;;;;;;-144.99;100.00;57660.31;344515;28;1846;-67
2021/12/11 00:33:47;;;;;;;2.22;1.60;;;;;;;-144.99;100.00;57660.31;344989;28;1038;-68
2021/12/11 00:34:01;;;;;;;2.60;1.60;;;;;;;-144.99;100.00;57660.31;344973;28;1542;-69
2021/12/11 00:34:15;;;;;;;3.17;1.60;;;;;;;-144.99;100.00;57660.31;345032;28;1081;-68
2021/12/11 00:34:28;;;;;;;3.97;1.77;;;;;;;-144.99;100.00;57660.31;343599;28;1035;-68
2021/12/11 00:34:46;;;;;;;3.45;1.80;;;;;;;-144.99;100.00;57660.31;343091;28;1781;-68
2021/12/11 00:35:12;;;;;;;2.40;1.55;;;;;;;-144.99;100.00;57660.31;343484;28;1574;-67
2021/12/11 00:35:24;;;;;;;2.67;1.75;;;;;;;-144.99;100.00;57660.31;343228;28;1907;-68
2021/12/11 00:35:38;;;;;;;2.95;1.90;;;;;;;-144.99;100.00;57660.31;343115;28;1111;-68
2021/12/11 00:35:52;;;;;;;3.53;1.75;;;;;;;-144.99;100.00;57660.31;343549;28;1532;-68
2021/12/11 00:36:10;;;;;;;3.13;1.40;;;;;;;-144.99;100.00;57660.31;343747;28;1554;-67
2021/12/11 00:36:28;;;;;;;3.55;1.52;;;;;;;-144.99;100.00;57660.31;343718;28;906;-68
2021/12/11 00:36:48;;;;;;;3.35;1.60;;;;;;;-144.99;100.00;57660.31;344434;28;2252;-68
2021/12/11 00:37:04;;;;;;;2.75;1.77;;;;;;;-144.99;100.00;57660.31;344950;28;1599;-68
2021/12/11 00:37:20;;;;;;;3.55;1.85;;;;;;;-144.99;100.00;57660.31;344580;28;1342;-67
2021/12/11 00:37:32;;;;;;;5.38;1.80;;;;;;;-144.99;100.00;57660.31;345013;28;940;-68
2021/12/11 00:37:45;;;;;;;4.97;1.83;;;;;;;-144.99;100.00;57660.31;345233;28;1097;-68
2021/12/11 00:38:02;;;;;;;3.67;1.80;;;;;;;-144.99;100.00;57660.31;345131;28;1636;-68
2021/12/11 00:38:22;;;;;;;2.25;1.77;;;;;;;-144.99;100.00;57660.31;344286;28;1853;-68
2021/12/11 00:38:35;;;;;;;2.85;1.70;;;;;;;-144.99;100.00;57660.31;345050;28;1201;-68
2021/12/11 00:38:49;;;;;;;3.03;1.70;;;;;;;-144.99;100.00;57660.31;345118;28;1123;-68
2021/12/11 00:39:08;;;;;;;2.78;1.90;;;;;;;-144.99;100.00;57660.31;344907;28;1301;-68
2021/12/11 00:39:21;;;;;;;2.60;1.77;;;;;;;-144.99;100.00;57660.31;344050;28;1270;-67
2021/12/11 00:39:42;;;;;;;2.45;1.55;;;;;;;-144.99;100.00;57660.31;343694;28;1064;-68
2021/12/11 00:40:00;;;;;;;3.97;1.70;;;;;;;-144.99;100.00;57660.31;343439;28;1724;-68
2021/12/11 00:40:25;;;;;;;3.70;1.80;;;;;;;-144.99;100.00;57660.31;343641;28;971;-68
2021/12/11 00:40:38;;;;;;;3.35;1.60;;;;;;;-144.99;100.00;57660.31;343686;28;1039;-68
2021/12/11 00:40:53;;;;;;;3.45;1.70;;;;;;;-144.99;100.00;57660.31;343680;28;1175;-68
2021/12/11 00:41:08;;;;;;;3.00;1.85;;;;;;;-144.99;100.00;57660.31;344978;28;1300;-68
2021/12/11 00:41:21;;;;;;;2.92;1.83;;;;;;;-144.99;100.00;57660.31;345015;28;1204;-68
2021/12/11 00:41:34;;;;;;;3.65;1.95;;;;;;;-144.99;100.00;57660.31;343910;28;1657;-68
2021/12/11 00:41:53;;;;;;;3.35;1.98;;;;;;;-144.99;100.00;57660.31;344678;28;1506;-69
2021/12/11 00:42:07;;;;;;;2.40;1.80;;;;;;;-144.99;100.00;57660.31;343896;28;1574;-68
2021/12/11 00:42:22;;;;;;;2.70;1.70;;;;;;;-144.99;100.00;57660.31;344946;28;1019;-68
2021/12/11 00:42:35;;;;;;;2.65;1.55;;;;;;;-144.99;100.00;57660.31;344812;28;1500;-68
2021/12/11 00:42:51;;;;;;;3.17;1.60;;;;;;;-144.99;100.00;57660.31;343145;28;1830;-68
2021/12/11 00:43:11;;;;;;;3.22;1.55;;;;;;;-144.99;100.00;57660.31;344459;28;1536;-68
2021/12/11 00:43:29;;;;;;;2.63;1.55;;;;;;;-144.99;100.00;57660.31;345044;28;1369;-68
2021/12/11 00:43:42;;;;;;;2.53;1.70;;;;;;;-144.99;100.00;57660.31;344180;28;2071;-68
2021/12/11 00:44:00;;;;;;;3.22;1.60;;;;;;;-144.99;100.00;57660.31;343837;28;2043;-68
2021/12/11 00:44:12;;;;;;;3.50;1.67;;;;;;;-144.99;100.00;57660.31;343542;28;1152;-67
2021/12/11 00:44:38;;;;;;;3.53;1.85;;;;;;;-144.99;100.00;57660.31;343786;28;1178;-67
2021/12/11 00:44:54;;;;;;;3.15;1.95;;;;;;;-144.99;100.00;57660.31;343942;28;1563;-68
2021/12/11 00:45:17;;;;;;;3.05;2.00;;;;;;;-144.99;100.00;57660.31;343864;28;1562;-68
2021/12/11 00:45:34;;;;;;;3.50;1.95;;;;;;;-144.99;100.00;57660.31;343740;28;1372;-68
2021/12/11 00:45:49;;;;;;;3.88;2.63;;;;;;;-144.99;100.00;57660.31;345121;28;1176;-68
2021/12/11 00:46:05;;;;;;;3.67;3.20;;;;;;;-144.99;100.00;57660.31;345019;28;1265;-68
2021/12/11 00:46:26;;;;;;;3.28;2.97;;;;;;;-144.99;100.00;57660.31;344842;28;1012;-68
2021/12/11 00:46:39;;;;;;;2.97;2.38;;;;;;;-144.99;100.00;57660.31;345113;28;1181;-68
2021/12/11 00:46:51;;;;;;;2.78;2.10;;;;;;;-144.99;100.00;57660.31;345009;28;1129;-68
2021/12/11 00:47:12;;;;;;;2.33;1.80;;;;;;;-144.99;100.00;57660.31;345058;28;1555;-68
2021/12/11 00:47:29;;;;;;;2.10;1.63;;;;;;;-144.99;100.00;57660.31;344949;28;1095;-68
2021/12/11 00:47:46;;;;;;;3.13;1.77;;;;;;;-144.99;100.00;57660.31;345003;28;1055;-68
2021/12/11 00:48:04;;;;;;;3.45;1.80;;;;;;;-144.99;100.00;57660.31;345003;28;1624;-68
2021/12/11 00:48:20;;;;;;;3.08;1.70;;;;;;;-144.99;100.00;57660.31;344845;28;1270;-68
2021/12/11 00:48:32;;;;;;;2.30;1.55;;;;;;;-144.99;100.00;57660.31;344815;28;1054;-68
2021/12/11 00:48:44;;;;;;;2.35;1.60;;;;;;;-144.99;100.00;57660.31;344808;28;1278;-68
2021/12/11 00:49:12;;;;;;;2.72;1.77;;;;;;;-144.99;100.00;57660.31;345153;28;1558;-67
2021/12/11 00:49:28;;;;;;;4.90;1.85;;;;;;;-144.99;100.00;57660.31;345188;28;1042;-68
2021/12/11 00:49:49;;;;;;;4.32;1.98;;;;;;;-144.99;100.00;57660.31;343605;28;1996;-68
2021/12/11 00:50:07;;;;;;;3.00;1.98;;;;;;;-144.99;100.00;57660.31;344943;28;1392;-67
2021/12/11 00:50:25;;;;;;;2.83;2.00;;;;;;;-144.99;100.00;57660.31;345207;28;1169;-67
2021/12/11 00:50:52;;;;;;;2.95;1.80;;;;;;;-144.99;100.00;57660.31;344831;28;1295;-68
2021/12/11 00:51:17;;;;;;;5.22;1.88;;;;;;;-144.99;100.00;57660.31;344939;28;1623;-68
2021/12/11 00:51:29;;;;;;;3.13;1.77;;;;;;;-144.99;100.00;57660.31;344288;28;1418;-67
2021/12/11 00:51:50;;;;;;;3.78;1.90;;;;;;;-144.99;100.00;57660.31;344983;28;1631;-69
2021/12/11 00:52:03;;;;;;;3.88;1.80;;;;;;;-144.99;100.00;57660.31;344440;28;1302;-68
2021/12/11 00:52:15;;;;;;;3.20;1.60;;;;;;;-144.99;100.00;57660.31;345044;28;1180;-68
2021/12/11 00:52:33;;;;;;;3.35;1.70;;;;;;;-144.99;100.00;57660.31;344767;28;1063;-68
2021/12/11 00:52:50;;;;;;;3.03;1.88;;;;;;;-144.99;100.00;57660.31;344839;28;1028;-67
2021/12/11 00:53:31;;;;;;;3.13;1.88;;;;;;;-144.99;100.00;57660.31;344975;28;1245;-67
2021/12/11 00:53:51;;;;;;;3.63;1.73;;;;;;;-144.99;100.00;57660.31;344597;28;1556;-68
2021/12/11 00:54:04;;;;;;;2.97;1.80;;;;;;;-144.99;100.00;57660.31;344506;28;1511;-67
2021/12/11 00:54:17;;;;;;;3.10;1.90;;;;;;;-144.99;100.00;57660.31;345251;28;1213;-68
2021/12/11 00:54:43;;;;;;;3.72;2.00;;;;;;;-144.99;100.00;57660.31;342778;28;1466;-68
2021/12/11 00:54:55;;;;;;;3.53;1.90;;;;;;;-144.99;100.00;57660.31;342289;28;1056;-68
2021/12/11 00:55:20;;;;;;;3.10;1.80;;;;;;;-144.99;100.00;57660.31;342241;28;1249;-67
2021/12/11 00:55:37;;;;;;;2.72;1.63;;;;;;;-144.99;100.00;57660.31;341979;28;1602;-68
2021/12/11 00:55:52;;;;;;;2.60;1.73;;;;;;;-144.99;100.00;57660.31;342628;28;1280;-68
2021/12/11 00:56:16;;;;;;;1.88;1.67;;;;;;;-144.99;100.00;57660.31;343125;28;1777;-68
2021/12/11 00:56:38;;;;;;;3.13;1.80;;;;;;;-144.99;100.00;57660.31;343779;28;1493;-69
2021/12/11 00:56:50;;;;;;;3.38;1.80;;;;;;;-144.99;100.00;57660.31;343564;28;1199;-68
2021/12/11 00:57:02;;;;;;;3.30;1.65;;;;;;;-144.99;100.00;57660.31;344709;28;1299;-67
2021/12/11 00:57:20;;;;;;;3.40;1.70;;;;;;;-144.99;100.00;57660.31;345055;28;1293;-68
2021/12/11 00:57:33;;;;;;;2.88;1.70;;;;;;;-144.99;100.00;57660.31;344157;28;1438;-67
2021/12/11 00:57:47;;;;;;;3.05;1.65;;;;;;;-144.99;100.00;57660.31;345103;28;1128;-68
2021/12/11 00:58:09;;;;;;;2.70;1.55;;;;;;;-144.99;100.00;57660.31;344337;28;1559;-67
2021/12/11 00:58:25;;;;;;;2.65;1.67;;;;;;;-144.99;100.00;57660.31;345107;28;1023;-68
2021/12/11 00:58:39;;;;;;;2.60;1.77;;;;;;;-144.99;100.00;57660.31;345007;28;1055;-67
2021/12/11 00:58:55;;;;;;;2.75;1.70;;;;;;;-144.99;100.00;57660.31;344859;28;1256;-68
2021/12/11 00:59:12;;;;;;;2.75;1.67;;;;;;;-144.99;100.00;57660.31;344864;28;1172;-68
2021/12/11 00:59:24;;;;;;;2.30;1.55;;;;;;;-144.99;100.00;57660.31;344922;28;1402;-68
2021/12/11 00:59:36;;;;;;;2.53;1.58;;;;;;;-144.99;100.00;57660.31;345342;28;1070;-68
2021/12/11 01:00:09;;;;;;;3.50;1.65;;;;;;;-144.99;100.00;57660.31;344814;28;1638;-68
2021/12/11 01:00:23;;;;;;;2.63;1.52;;;;;;;-144.99;100.00;57660.31;343503;28;1056;-68
2021/12/11 01:00:47;;;;;;;2.42;1.50;;;;;;;-144.99;100.00;57660.31;342556;28;3020;-68
2021/12/11 01:01:19;;;;;;;4.00;1.70;;;;;;;-144.99;100.00;57660.31;344427;28;1288;-68
2021/12/11 01:01:38;;;;;;;2.80;1.73;;;;;;;-144.99;100.00;57660.31;345003;28;1260;-67
2021/12/11 01:01:55;;;;;;;3.40;1.90;;;;;;;-144.99;100.00;57660.31;344416;28;1930;-68
2021/12/11 01:02:08;;;;;;;2.83;1.63;;;;;;;-144.99;100.00;57660.31;343767;28;1324;-67
2021/12/11 01:02:21;;;;;;;3.30;1.60;;;;;;;-144.99;100.00;57660.31;343842;28;1222;-68
2021/12/11 01:02:33;;;;;;;3.15;1.70;;;;;;;-144.99;100.00;57660.31;343457;28;2658;-68
2021/12/11 01:02:50;;;;;;;3.38;1.70;;;;;;;-144.99;100.00;57660.31;343852;28;1380;-67
2021/12/11 01:03:03;;;;;;;3.35;1.80;;;;;;;-144.99;100.00;57660.31;344474;28;1522;-68
2021/12/11 01:03:18;;;;;;;2.92;1.75;;;;;;;-144.99;100.00;57660.31;345021;28;1272;-68
2021/12/11 01:03:48;;;;;;;2.67;1.70;;;;;;;-144.99;100.00;57660.31;345058;28;923;-68
2021/12/11 01:04:10;;;;;;;4.65;1.75;;;;;;;-144.99;100.00;57660.31;344228;28;1560;-68
2021/12/11 01:04:24;;;;;;;3.05;1.70;;;;;;;-144.99;100.00;57660.31;344810;28;1035;-67
2021/12/11 01:04:41;;;;;;;3.33;1.70;;;;;;;-144.99;100.00;57660.31;345034;28;1060;-68
2021/12/11 01:04:54;;;;;;;2.53;1.63;;;;;;;-144.99;100.00;57660.31;344211;28;1114;-68
2021/12/11 01:05:09;;;;;;;2.22;1.70;;;;;;;-144.99;100.00;57660.31;344841;28;1566;-67
2021/12/11 01:05:23;;;;;;;2.03;1.70;;;;;;;-144.99;100.00;57660.31;343960;28;1817;-68
2021/12/11 01:05:42;;;;;;;1.95;1.70;;;;;;;-144.99;100.00;57660.31;344753;28;1059;-68
2021/12/11 01:05:57;;;;;;;2.60;1.90;;;;;;;-144.99;100.00;57660.31;344969;28;1082;-68
2021/12/11 01:06:23;;;;;;;2.53;1.75;;;;;;;-144.99;100.00;57660.31;343751;28;1107;-68
2021/12/11 01:07:03;;;;;;;2.03;1.60;;;;;;;-144.99;100.00;57660.31;343631;28;3109;-68
2021/12/11 01:07:20;;;;;;;2.28;1.70;;;;;;;-144.99;100.00;57660.31;343455;28;1343;-67
2021/12/11 01:07:33;;;;;;;2.47;1.77;;;;;;;-144.99;100.00;57660.31;343739;28;1034;-67
2021/12/11 01:07:45;;;;;;;2.30;1.60;;;;;;;-144.99;100.00;57660.31;343614;28;1284;-67
2021/12/11 01:07:57;;;;;;;2.30;1.60;;;;;;;-144.99;100.00;57660.31;343836;28;1580;-67
2021/12/11 01:08:23;;;;;;;2.30;1.60;;;;;;;-144.99;100.00;57660.31;344646;28;1813;-67
2021/12/11 01:08:40;;;;;;;2.20;1.70;;;;;;;-144.99;100.00;57660.31;344605;28;2068;-67
2021/12/11 01:09:03;;;;;;;2.30;1.73;;;;;;;-144.99;100.00;57660.31;345034;28;1514;-67
2021/12/11 01:09:19;;;;;;;3.53;1.60;;;;;;;-144.99;100.00;57660.31;344735;28;1025;-67
2021/12/11 01:09:37;;;;;;;3.40;1.50;;;;;;;-144.99;100.00;57660.31;345000;28;1107;-67
2021/12/11 01:10:07;;;;;;;2.30;1.58;;;;;;;-144.99;100.00;57660.31;345056;28;1145;-67
2021/12/11 01:10:27;;;;;;;3.78;1.65;;;;;;;-144.99;100.00;57660.31;345051;28;1094;-67
2021/12/11 01:10:39;;;;;;;2.60;1.63;;;;;;;-144.99;100.00;57660.31;344950;28;1059;-67
2021/12/11 01:10:59;;;;;;;2.13;1.63;;;;;;;-144.99;100.00;57660.31;345037;28;1143;-68
2021/12/11 01:11:22;;;;;;;1.77;1.50;;;;;;;-144.99;100.00;57660.31;343496;28;1107;-68
2021/12/11 01:11:41;;;;;;;2.13;1.70;;;;;;;-144.99;100.00;57660.31;343763;28;1010;-67
2021/12/11 01:12:02;;;;;;;2.05;1.60;;;;;;;-144.99;100.00;57660.31;343673;28;1733;-67
2021/12/11 01:12:23;;;;;;;2.33;1.75;;;;;;;-144.99;100.00;57660.31;344868;28;2252;-67
2021/12/11 01:12:47;;;;;;;2.30;1.63;;;;;;;-144.99;100.00;57660.31;344993;28;1086;-67
2021/12/11 01:13:03;;;;;;;2.97;1.90;;;;;;;-144.99;100.00;57660.31;345420;28;1398;-67
2021/12/11 01:13:19;;;;;;;2.20;1.70;;;;;;;-144.99;100.00;57660.31;344491;28;1541;-67
2021/12/11 01:13:36;;;;;;;2.60;1.65;;;;;;;-144.99;100.00;57660.31;344752;28;1137;-67
2021/12/11 01:14:09;;;;;;;3.08;1.73;;;;;;;-144.99;100.00;57660.31;345028;28;1071;-67
2021/12/11 01:14:52;;;;;;;2.38;1.63;;;;;;;-144.99;100.00;57660.31;343523;28;1111;-67
2021/12/11 01:15:16;;;;;;;1.95;1.67;;;;;;;-144.99;100.00;57660.31;338278;28;1694;-68
2021/12/11 01:15:34;;;;;;;2.90;1.83;;;;;;;-144.99;100.00;57660.31;343321;28;1842;-67
2021/12/11 01:15:55;;;;;;;3.05;1.73;;;;;;;-144.99;100.00;57660.31;343568;28;2034;-67
2021/12/11 01:16:12;;;;;;;2.72;1.70;;;;;;;-144.99;100.00;57660.31;343797;28;1098;-67
2021/12/11 01:16:25;;;;;;;3.08;1.60;;;;;;;-144.99;100.00;57660.31;343564;28;1159;-67
2021/12/11 01:16:41;;;;;;;3.20;1.65;;;;;;;-144.99;100.00;57660.31;343566;28;1348;-67
2021/12/11 01:17:07;;;;;;;2.85;1.80;;;;;;;-144.99;100.00;57660.31;344250;28;1532;-67
2021/12/11 01:17:25;;;;;;;2.90;1.70;;;;;;;-144.99;100.00;57660.31;343683;28;1312;-67
2021/12/11 01:18:10;;;;;;;3.42;1.98;;;;;;;-144.99;100.00;57660.31;343546;28;1165;-67
2021/12/11 01:18:34;;;;;;;2.17;1.70;;;;;;;-144.99;100.00;57660.31;344066;28;2365;-67
2021/12/11 01:18:55;;;;;;;2.08;1.77;;;;;;;-144.99;100.00;57660.31;344649;28;2729;-67
2021/12/11 01:19:16;;;;;;;2.22;1.90;;;;;;;-144.99;100.00;57660.31;343962;28;1046;-67
2021/12/11 01:19:35;;;;;;;2.45;1.70;;;;;;;-144.99;100.00;57660.31;343775;28;1536;-67
2021/12/11 01:19:54;;;;;;;2.55;1.90;;;;;;;-144.99;100.00;57660.31;343640;28;1299;-67
2021/12/11 01:20:23;;;;;;;2.50;1.92;;;;;;;-144.99;100.00;57660.31;343844;28;1609;-67
2021/12/11 01:20:52;;;;;;;2.53;1.70;;;;;;;-144.99;100.00;57660.31;345023;28;1065;-67
2021/12/11 01:21:59;;;;;;;2.75;1.98;;;;;;;-144.99;100.00;57660.31;344015;28;1776;-67
2021/12/11 01:22:33;;;;;;;3.03;2.13;;;;;;;-144.99;100.00;57660.31;343663;28;1344;-67
2021/12/11 01:22:46;;;;;;;3.00;1.80;;;;;;;-144.99;100.00;57660.31;343708;28;1314;-67
2021/12/11 01:22:58;;;;;;;3.30;1.90;;;;;;;-144.99;100.00;57660.31;343957;28;1299;-67
2021/12/11 01:23:16;;;;;;;3.50;1.80;;;;;;;-144.99;100.00;57660.31;343589;28;1749;-67
2021/12/11 01:24:08;;;;;;;3.47;2.28;;;;;;;-144.99;100.00;57660.31;343842;28;1974;-67
2021/12/11 01:24:31;;;;;;;2.63;1.80;;;;;;;-144.99;100.00;57660.31;344778;28;1230;-67